createdAt,value
2023-04-01T00:00:34.172Z,100035.84
2023-04-01T00:03:39.662Z,100034.28
2023-04-01T00:06:45.333Z,100031.56
2023-04-01T00:09:50.939Z,100035.66
2023-04-01T00:12:57.010Z,100029.34
2023-04-01T00:16:03.572Z,100027.94
2023-04-01T00:19:09.594Z,100030.81
2023-04-01T00:22:15.173Z,100039.19
2023-04-01T00:25:21.028Z,100023.94
2023-04-01T00:28:26.400Z,100031.81
2023-04-01T00:31:31.867Z,100033.56
2023-04-01T00:34:38.001Z,100032.75
2023-04-01T00:37:43.440Z,100038.81
2023-04-01T00:40:49.277Z,100039.94
2023-04-01T00:44:15.083Z,100042.78
2023-04-01T00:47:20.994Z,100043.75
2023-04-01T00:50:30.963Z,100040.38
2023-04-01T00:53:41.947Z,100038.16
2023-04-01T00:56:57.277Z,100044.88
2023-04-01T01:00:02.625Z,100052.19
2023-04-01T01:03:08.733Z,100055.28
2023-04-01T01:06:31.826Z,100061.38
2023-04-01T01:09:43.076Z,100058.53
2023-04-01T01:13:21.949Z,100052.41
2023-04-01T01:16:32.464Z,100046.81
2023-04-01T01:20:25.839Z,100051.13
2023-04-01T01:23:44.965Z,100054.44
2023-04-01T01:26:54.999Z,100055.75
2023-04-01T01:30:03.168Z,100049.13
2023-04-01T01:33:27.208Z,100056.41
2023-04-01T01:36:38.347Z,100064.94
2023-04-01T01:39:58.360Z,100058.00
2023-04-01T01:43:11.357Z,100047.03
2023-04-01T01:46:21.966Z,100046.91
2023-04-01T01:49:31.850Z,100045.59
2023-04-01T01:52:37.171Z,100043.09
2023-04-01T01:55:46.821Z,100042.19
2023-04-01T01:58:59.595Z,100039.63
2023-04-01T02:02:09.257Z,100042.91
2023-04-01T02:05:25.943Z,100036.16
2023-04-01T02:08:43.285Z,100026.41
2023-04-01T02:12:02.018Z,100021.56
2023-04-01T02:15:16.964Z,100017.44
2023-04-01T02:18:22.396Z,100019.88
2023-04-01T02:21:32.767Z,100011.47
2023-04-01T02:24:40.196Z,100014.28
2023-04-01T02:27:46.798Z,100013.25
2023-04-01T02:30:52.976Z,100018.34
2023-04-01T02:33:59.093Z,100031.22
2023-04-01T02:37:04.835Z,100023.44
2023-04-01T02:40:16.289Z,100037.47
2023-04-01T02:43:22.506Z,100027.69
2023-04-01T02:46:27.917Z,100023.88
2023-04-01T02:49:34.013Z,100040.06
2023-04-01T02:52:39.519Z,100035.41
2023-04-01T02:55:46.217Z,100042.97
2023-04-01T02:58:52.040Z,100042.88
2023-04-01T03:01:57.538Z,100044.88
2023-04-01T03:05:03.112Z,100046.81
2023-04-01T03:08:09.195Z,100036.53
2023-04-01T03:11:15.003Z,100026.44
2023-04-01T03:14:20.691Z,100031.72
2023-04-01T03:17:26.473Z,100030.16
2023-04-01T03:20:32.904Z,100033.63
2023-04-01T03:23:38.878Z,100037.56
2023-04-01T03:26:45.745Z,100041.06
2023-04-01T03:29:51.690Z,100045.47
2023-04-01T03:32:57.509Z,100046.63
2023-04-01T03:36:04.821Z,100061.75
2023-04-01T03:39:10.439Z,100062.63
2023-04-01T03:42:21.033Z,100065.63
2023-04-01T03:45:27.463Z,100065.72
2023-04-01T03:48:33.259Z,100064.63
2023-04-01T03:51:44.050Z,100073.91
2023-04-01T03:54:50.389Z,100074.69
2023-04-01T03:57:56.187Z,100060.09
2023-04-01T04:01:02.435Z,100066.94
2023-04-01T04:04:14.377Z,100060.56
2023-04-01T04:07:21.035Z,100065.44
2023-04-01T04:10:42.584Z,100069.38
2023-04-01T04:13:49.516Z,100067.75
2023-04-01T04:16:54.887Z,100054.47
2023-04-01T04:20:00.819Z,100060.84
2023-04-01T04:23:06.309Z,100058.53
2023-04-01T04:26:15.184Z,100069.50
2023-04-01T04:29:24.028Z,100073.66
2023-04-01T04:32:31.291Z,100086.59
2023-04-01T04:35:36.526Z,100100.91
2023-04-01T04:38:42.196Z,100096.06
2023-04-01T04:41:47.856Z,100095.38
2023-04-01T04:44:53.719Z,100104.00
2023-04-01T04:48:00.181Z,100108.75
2023-04-01T04:51:06.949Z,100106.22
2023-04-01T04:54:13.809Z,100101.50
2023-04-01T04:57:34.773Z,100102.38
2023-04-01T05:00:41.047Z,100109.47
2023-04-01T05:03:50.169Z,100112.69
2023-04-01T05:06:55.713Z,100109.91
2023-04-01T05:10:02.940Z,100113.16
2023-04-01T05:13:08.731Z,100107.59
2023-04-01T05:16:17.495Z,100111.53
2023-04-01T05:19:22.885Z,100115.69
2023-04-01T05:22:28.476Z,100125.47
2023-04-01T05:25:34.011Z,100122.00
2023-04-01T05:28:39.959Z,100120.06
2023-04-01T05:31:45.449Z,100116.66
2023-04-01T05:34:55.309Z,100119.13
2023-04-01T05:38:00.897Z,100115.91
2023-04-01T05:41:06.910Z,100118.13
2023-04-01T05:44:16.578Z,100128.97
2023-04-01T05:47:22.062Z,100131.03
2023-04-01T05:50:27.696Z,100135.28
2023-04-01T05:53:33.257Z,100133.13
2023-04-01T05:56:39.093Z,100135.44
2023-04-01T05:59:44.503Z,100135.28
2023-04-01T06:02:49.699Z,100130.41
2023-04-01T06:05:54.861Z,100152.72
2023-04-01T06:09:19.321Z,100148.38
2023-04-01T06:12:43.313Z,100146.72
2023-04-01T06:16:00.292Z,100148.69
2023-04-01T06:19:31.358Z,100147.38
2023-04-01T06:23:05.649Z,100134.88
2023-04-01T06:26:23.816Z,100141.06
2023-04-01T06:30:08.420Z,100152.41
2023-04-01T06:33:46.197Z,100150.44
2023-04-01T06:36:51.781Z,100163.19
2023-04-01T06:40:18.262Z,100167.44
2023-04-01T06:44:06.850Z,100175.41
2023-04-01T06:47:39.234Z,100174.50
2023-04-01T06:51:03.000Z,100166.59
2023-04-01T06:54:48.429Z,100168.53
2023-04-01T06:58:43.510Z,100178.94
2023-04-01T07:01:53.595Z,100170.22
2023-04-01T07:05:00.959Z,100153.00
2023-04-01T07:08:13.107Z,100163.91
2023-04-01T07:11:27.876Z,100163.16
2023-04-01T07:15:38.947Z,100160.38
2023-04-01T07:19:28.093Z,100163.94
2023-04-01T07:22:47.094Z,100155.03
2023-04-01T07:26:22.129Z,100157.28
2023-04-01T07:29:52.316Z,100168.09
2023-04-01T07:33:01.968Z,100173.16
2023-04-01T07:36:12.255Z,100165.78
2023-04-01T07:39:36.758Z,100170.94
2023-04-01T07:42:56.899Z,100176.94
2023-04-01T07:46:47.220Z,100170.69
2023-04-01T07:50:27.576Z,100176.41
2023-04-01T07:53:44.233Z,100190.56
2023-04-01T07:57:16.424Z,100178.31
2023-04-01T08:00:37.729Z,100178.34
2023-04-01T08:03:58.263Z,100189.88
2023-04-01T08:07:15.186Z,100182.91
2023-04-01T08:11:01.119Z,100179.72
2023-04-01T08:14:42.451Z,100176.78
2023-04-01T08:18:21.602Z,100186.44
2023-04-01T08:21:36.997Z,100180.53
2023-04-01T08:24:48.441Z,100183.22
2023-04-01T08:28:22.335Z,100185.91
2023-04-01T08:31:52.814Z,100182.69
2023-04-01T08:35:38.797Z,100184.28
2023-04-01T08:39:11.050Z,100187.50
2023-04-01T08:42:22.579Z,100182.16
2023-04-01T08:46:26.107Z,100193.09
2023-04-01T08:49:49.627Z,100191.75
2023-04-01T08:53:30.640Z,100200.84
2023-04-01T08:57:23.989Z,100197.88
2023-04-01T09:00:54.440Z,100197.88
2023-04-01T09:04:28.343Z,100201.38
2023-04-01T09:08:03.376Z,100199.06
2023-04-01T09:11:48.765Z,100206.81
2023-04-01T09:15:36.710Z,100202.41
2023-04-01T09:19:53.621Z,100195.44
2023-04-01T09:23:30.681Z,100201.31
2023-04-01T09:26:45.311Z,100197.81
2023-04-01T09:30:09.381Z,100192.59
2023-04-01T09:33:23.810Z,100192.34
2023-04-01T09:37:00.034Z,100190.94
2023-04-01T09:40:14.932Z,100188.34
2023-04-01T09:43:21.906Z,100186.84
2023-04-01T09:47:05.718Z,100184.94
2023-04-01T09:50:20.129Z,100190.13
2023-04-01T09:53:59.702Z,100185.59
2023-04-01T09:57:39.369Z,100189.41
2023-04-01T10:01:54.972Z,100185.66
2023-04-01T10:05:42.737Z,100187.13
2023-04-01T10:09:17.671Z,100194.78
2023-04-01T10:12:41.655Z,100190.19
2023-04-01T10:16:15.910Z,100183.53
2023-04-01T10:19:40.276Z,100186.47
2023-04-01T10:23:05.105Z,100175.75
2023-04-01T10:26:19.409Z,100180.19
2023-04-01T10:29:48.256Z,100173.91
2023-04-01T10:33:24.399Z,100170.63
2023-04-01T10:36:44.734Z,100170.94
2023-04-01T10:40:13.539Z,100163.00
2023-04-01T10:43:59.159Z,100171.38
2023-04-01T10:47:41.662Z,100166.38
2023-04-01T10:50:57.323Z,100165.34
2023-04-01T10:54:21.254Z,100164.28
2023-04-01T10:58:32.942Z,100158.06
2023-04-01T11:02:36.445Z,100150.72
2023-04-01T11:06:18.911Z,100146.13
2023-04-01T11:09:45.922Z,100145.41
2023-04-01T11:13:23.024Z,100147.00
2023-04-01T11:17:01.034Z,100146.78
2023-04-01T11:20:24.729Z,100151.06
2023-04-01T11:24:05.558Z,100140.56
2023-04-01T11:27:48.594Z,100141.59
2023-04-01T11:31:12.175Z,100131.25
2023-04-01T11:35:02.766Z,100142.53
2023-04-01T11:38:41.735Z,100135.84
2023-04-01T11:42:24.083Z,100144.28
2023-04-01T11:46:00.019Z,100134.31
2023-04-01T11:49:23.940Z,100133.81
2023-04-01T11:53:14.818Z,100141.31
2023-04-01T11:56:27.044Z,100132.50
2023-04-01T12:00:01.772Z,100134.03
2023-04-01T12:03:28.717Z,100129.03
2023-04-01T12:07:12.711Z,100135.91
2023-04-01T12:10:43.036Z,100126.03
2023-04-01T12:14:17.778Z,100120.91
2023-04-01T12:17:33.408Z,100121.81
2023-04-01T12:20:46.947Z,100122.41
2023-04-01T12:24:32.342Z,100121.72
2023-04-01T12:28:12.864Z,100116.22
2023-04-01T12:31:31.843Z,100118.78
2023-04-01T12:35:05.961Z,100111.72
2023-04-01T12:38:37.994Z,100107.88
2023-04-01T12:42:13.884Z,100105.56
2023-04-01T12:45:42.287Z,100099.13
2023-04-01T12:49:22.006Z,100100.09
2023-04-01T12:52:34.815Z,100098.59
2023-04-01T12:55:46.021Z,100098.31
2023-04-01T12:59:18.813Z,100097.63
2023-04-01T13:02:30.015Z,100085.91
2023-04-01T13:05:56.024Z,100083.06
2023-04-01T13:09:10.434Z,100076.41
2023-04-01T13:12:44.914Z,100068.84
2023-04-01T13:15:57.656Z,100069.19
2023-04-01T13:19:22.587Z,100069.34
2023-04-01T13:23:16.891Z,100064.84
2023-04-01T13:26:52.510Z,100063.56
2023-04-01T13:30:30.511Z,100057.53
2023-04-01T13:34:08.153Z,100054.03
2023-04-01T13:37:36.004Z,100050.09
2023-04-01T13:41:04.216Z,100044.22
2023-04-01T13:44:18.183Z,100045.00
2023-04-01T13:47:45.657Z,100043.19
2023-04-01T13:51:09.788Z,100040.81
2023-04-01T13:54:48.483Z,100042.88
2023-04-01T13:58:11.920Z,100031.06
2023-04-01T14:01:42.300Z,100026.59
2023-04-01T14:05:06.281Z,100026.94
2023-04-01T14:08:44.797Z,100027.56
2023-04-01T14:12:07.344Z,100027.19
2023-04-01T14:15:40.929Z,100029.50
2023-04-01T14:18:55.249Z,100019.28
2023-04-01T14:22:54.857Z,100012.09
2023-04-01T14:26:28.657Z,100012.59
2023-04-01T14:29:39.923Z,100003.81
2023-04-01T14:32:57.563Z,100004.59
2023-04-01T14:36:19.494Z,100001.91
2023-04-01T14:39:34.421Z,99991.88
2023-04-01T14:42:57.584Z,99992.28
2023-04-01T14:46:27.220Z,99996.50
2023-04-01T14:49:48.473Z,99993.13
2023-04-01T14:52:56.406Z,99991.53
2023-04-01T14:56:06.679Z,99983.66
2023-04-01T14:59:18.755Z,99984.53
2023-04-01T15:03:02.644Z,99983.88
2023-04-01T15:06:39.549Z,99978.91
2023-04-01T15:10:21.118Z,99979.25
2023-04-01T15:13:26.374Z,99977.78
2023-04-01T15:16:56.973Z,99982.44
2023-04-01T15:20:26.082Z,99966.59
2023-04-01T15:24:06.019Z,99967.19
2023-04-01T15:27:23.091Z,99962.28
2023-04-01T15:30:48.325Z,99962.56
2023-04-01T15:34:14.820Z,99951.06
2023-04-01T15:37:34.995Z,99943.59
2023-04-01T15:40:53.020Z,99943.31
2023-04-01T15:43:58.247Z,99938.72
2023-04-01T15:47:28.816Z,99936.84
2023-04-01T15:51:00.672Z,99938.81
2023-04-01T15:54:43.095Z,99930.84
2023-04-01T15:58:05.146Z,99933.94
2023-04-01T16:01:19.434Z,99928.13
2023-04-01T16:04:39.660Z,99925.75
2023-04-01T16:08:03.863Z,99920.84
2023-04-01T16:11:18.034Z,99931.75
2023-04-01T16:14:51.066Z,99930.19
2023-04-01T16:17:56.371Z,99930.56
2023-04-01T16:21:13.639Z,99938.66
2023-04-01T16:24:42.459Z,99933.84
2023-04-01T16:28:12.116Z,99944.06
2023-04-01T16:31:39.647Z,99946.91
2023-04-01T16:34:50.567Z,99951.03
2023-04-01T16:38:07.209Z,99951.03
2023-04-01T16:41:38.438Z,99955.31
2023-04-01T16:45:02.248Z,99959.41
2023-04-01T16:48:17.323Z,99959.16
2023-04-01T16:51:24.957Z,99952.78
2023-04-01T16:54:49.108Z,99954.69
2023-04-01T16:57:59.900Z,99947.47
2023-04-01T17:01:21.740Z,99955.63
2023-04-01T17:04:45.077Z,99962.38
2023-04-01T17:07:58.796Z,99961.44
2023-04-01T17:11:12.330Z,99962.81
2023-04-01T17:14:45.357Z,99963.81
2023-04-01T17:17:58.204Z,99969.44
2023-04-01T17:21:08.672Z,99968.69
2023-04-01T17:24:33.017Z,99971.75
2023-04-01T17:27:57.104Z,99976.56
2023-04-01T17:31:34.261Z,99972.84
2023-04-01T17:35:01.303Z,99973.78
2023-04-01T17:38:54.806Z,99971.63
2023-04-01T17:42:58.371Z,99979.09
2023-04-01T17:46:13.506Z,99983.34
2023-04-01T17:49:40.351Z,99978.34
2023-04-01T17:53:03.296Z,99984.47
2023-04-01T17:56:45.838Z,99986.81
2023-04-01T18:00:05.463Z,99989.59
2023-04-01T18:03:53.966Z,99995.09
2023-04-01T18:07:23.844Z,99994.72
2023-04-01T18:11:06.205Z,99993.72
2023-04-01T18:14:36.220Z,99990.97
2023-04-01T18:18:12.431Z,99999.97
2023-04-01T18:21:35.904Z,99998.69
2023-04-01T18:24:56.453Z,99995.75
2023-04-01T18:28:17.904Z,99997.41
2023-04-01T18:31:34.423Z,100005.81
2023-04-01T18:34:42.968Z,100011.47
